sensor_id;sensor_type;location;lat;lon;timestamp;temperature;humidity
3842;DHT22;1936;47.074;15.336;2022-12-13T00:00:11;-7.10;99.90
3842;DHT22;1936;47.074;15.336;2022-12-13T00:02:15;-7.10;99.90
3842;DHT22;1936;47.074;15.336;2022-12-13T00:04:20;-7.10;99.90
3842;DHT22;1936;47.074;15.336;2022-12-13T00:06:24;-7.10;99.90
3842;DHT22;1936;47.074;15.336;2022-12-13T00:08:29;-7.10;99.90
3842;DHT22;1936;47.074;15.336;2022-12-13T00:10:33;-7.10;99.90
3842;DHT22;1936;47.074;15.336;2022-12-13T00:12:36;-7.20;99.90
3842;DHT22;1936;47.074;15.336;2022-12-13T00:14:39;-7.20;99.90
3842;DHT22;1936;47.074;15.336;2022-12-13T00:16:44;-7.20;99.90
3842;DHT22;1936;47.074;15.336;2022-12-13T00:18:49;-7.10;99.90
3842;DHT22;1936;47.074;15.336;2022-12-13T00:20:54;-7.20;99.90
3842;DHT22;1936;47.074;15.336;2022-12-13T00:22:58;-7.10;99.90
3842;DHT22;1936;47.074;15.336;2022-12-13T00:25:03;-7.10;99.90
3842;DHT22;1936;47.074;15.336;2022-12-13T00:27:07;-7.10;99.90
3842;DHT22;1936;47.074;15.336;2022-12-13T00:29:11;-7.00;99.90
3842;DHT22;1936;47.074;15.336;2022-12-13T00:31:15;-7.00;99.90
3842;DHT22;1936;47.074;15.336;2022-12-13T00:33:38;-7.00;99.90
3842;DHT22;1936;47.074;15.336;2022-12-13T00:35:41;-7.00;99.90
3842;DHT22;1936;47.074;15.336;2022-12-13T00:37:46;-7.00;99.90
3842;DHT22;1936;47.074;15.336;2022-12-13T00:39:51;-6.80;99.90
3842;DHT22;1936;47.074;15.336;2022-12-13T00:41:56;-6.80;99.90
3842;DHT22;1936;47.074;15.336;2022-12-13T00:44:00;-6.80;99.90
3842;DHT22;1936;47.074;15.336;2022-12-13T00:46:05;-6.90;99.90
3842;DHT22;1936;47.074;15.336;2022-12-13T00:48:09;-6.90;99.90
3842;DHT22;1936;47.074;15.336;2022-12-13T00:50:13;-6.70;99.90
3842;DHT22;1936;47.074;15.336;2022-12-13T00:52:17;-6.40;99.90
3842;DHT22;1936;47.074;15.336;2022-12-13T00:54:20;-6.40;99.90
3842;DHT22;1936;47.074;15.336;2022-12-13T00:56:25;-6.20;99.90
3842;DHT22;1936;47.074;15.336;2022-12-13T00:58:30;-6.10;99.90
3842;DHT22;1936;47.074;15.336;2022-12-13T01:00:34;-6.00;99.90
3842;DHT22;1936;47.074;15.336;2022-12-13T01:02:37;-6.10;99.90
3842;DHT22;1936;47.074;15.336;2022-12-13T01:04:41;-6.20;99.90
3842;DHT22;1936;47.074;15.336;2022-12-13T01:06:45;-6.30;99.90
3842;DHT22;1936;47.074;15.336;2022-12-13T01:08:50;-6.40;99.90
3842;DHT22;1936;47.074;15.336;2022-12-13T01:10:54;-6.50;99.90
3842;DHT22;1936;47.074;15.336;2022-12-13T01:12:58;-6.50;99.90
3842;DHT22;1936;47.074;15.336;2022-12-13T01:15:04;-6.50;99.90
3842;DHT22;1936;47.074;15.336;2022-12-13T01:17:08;-6.60;99.90
3842;DHT22;1936;47.074;15.336;2022-12-13T01:19:11;-6.70;99.90
3842;DHT22;1936;47.074;15.336;2022-12-13T01:21:17;-6.70;99.90
3842;DHT22;1936;47.074;15.336;2022-12-13T01:23:23;-6.70;99.90
3842;DHT22;1936;47.074;15.336;2022-12-13T01:25:26;-6.70;99.90
3842;DHT22;1936;47.074;15.336;2022-12-13T01:27:30;-6.50;99.90
3842;DHT22;1936;47.074;15.336;2022-12-13T01:29:35;-6.60;99.90
3842;DHT22;1936;47.074;15.336;2022-12-13T01:31:40;-6.60;99.90
3842;DHT22;1936;47.074;15.336;2022-12-13T01:33:43;-6.50;99.90
3842;DHT22;1936;47.074;15.336;2022-12-13T01:35:47;-6.50;99.90
3842;DHT22;1936;47.074;15.336;2022-12-13T01:37:50;-6.60;99.90
3842;DHT22;1936;47.074;15.336;2022-12-13T01:39:59;-6.60;99.90
3842;DHT22;1936;47.074;15.336;2022-12-13T01:42:16;-6.70;99.90
3842;DHT22;1936;47.074;15.336;2022-12-13T01:47:10;-6.50;99.90
3842;DHT22;1936;47.074;15.336;2022-12-13T01:49:16;-6.10;99.90
3842;DHT22;1936;47.074;15.336;2022-12-13T01:51:25;-6.10;99.90
3842;DHT22;1936;47.074;15.336;2022-12-13T01:53:32;-6.20;99.90
3842;DHT22;1936;47.074;15.336;2022-12-13T01:55:37;-6.30;99.90
3842;DHT22;1936;47.074;15.336;2022-12-13T01:57:43;-6.50;99.90
3842;DHT22;1936;47.074;15.336;2022-12-13T01:59:48;-6.50;99.90
3842;DHT22;1936;47.074;15.336;2022-12-13T02:01:53;-6.60;99.90
3842;DHT22;1936;47.074;15.336;2022-12-13T02:04:03;-6.60;99.90
3842;DHT22;1936;47.074;15.336;2022-12-13T02:06:09;-6.60;99.90
3842;DHT22;1936;47.074;15.336;2022-12-13T02:08:15;-6.50;99.90
3842;DHT22;1936;47.074;15.336;2022-12-13T02:10:19;-6.50;99.90
3842;DHT22;1936;47.074;15.336;2022-12-13T02:12:23;-6.50;99.90
3842;DHT22;1936;47.074;15.336;2022-12-13T02:14:30;-6.60;99.90
3842;DHT22;1936;47.074;15.336;2022-12-13T02:16:42;-6.70;99.90
3842;DHT22;1936;47.074;15.336;2022-12-13T02:18:59;-6.80;99.90
3842;DHT22;1936;47.074;15.336;2022-12-13T02:21:22;-6.80;99.90
3842;DHT22;1936;47.074;15.336;2022-12-13T02:26:42;-6.80;99.90
3842;DHT22;1936;47.074;15.336;2022-12-13T02:29:01;-6.90;99.90
3842;DHT22;1936;47.074;15.336;2022-12-13T02:31:14;-6.80;99.90
3842;DHT22;1936;47.074;15.336;2022-12-13T02:33:27;-6.90;99.90
3842;DHT22;1936;47.074;15.336;2022-12-13T02:35:40;-7.00;99.90
3842;DHT22;1936;47.074;15.336;2022-12-13T02:37:49;-7.10;99.90
3842;DHT22;1936;47.074;15.336;2022-12-13T02:39:59;-7.10;99.90
3842;DHT22;1936;47.074;15.336;2022-12-13T02:42:11;-7.10;99.90
3842;DHT22;1936;47.074;15.336;2022-12-13T02:44:25;-7.00;99.90
3842;DHT22;1936;47.074;15.336;2022-12-13T02:46:35;-6.90;99.90
3842;DHT22;1936;47.074;15.336;2022-12-13T02:48:41;-6.60;99.90
3842;DHT22;1936;47.074;15.336;2022-12-13T02:50:45;-6.50;99.90
3842;DHT22;1936;47.074;15.336;2022-12-13T02:52:51;-6.60;99.90
3842;DHT22;1936;47.074;15.336;2022-12-13T02:54:55;-6.70;99.90
3842;DHT22;1936;47.074;15.336;2022-12-13T02:56:59;-6.80;99.90
3842;DHT22;1936;47.074;15.336;2022-12-13T02:59:08;-6.90;99.90
3842;DHT22;1936;47.074;15.336;2022-12-13T03:01:28;-6.90;99.90
3842;DHT22;1936;47.074;15.336;2022-12-13T03:03:46;-7.00;99.90
3842;DHT22;1936;47.074;15.336;2022-12-13T03:05:54;-7.00;99.90
3842;DHT22;1936;47.074;15.336;2022-12-13T03:08:22;-7.00;99.90
3842;DHT22;1936;47.074;15.336;2022-12-13T03:10:32;-7.00;99.90
3842;DHT22;1936;47.074;15.336;2022-12-13T03:12:42;-6.90;99.90
3842;DHT22;1936;47.074;15.336;2022-12-13T03:15:13;-7.00;99.90
3842;DHT22;1936;47.074;15.336;2022-12-13T03:17:19;-7.10;99.90
3842;DHT22;1936;47.074;15.336;2022-12-13T03:19:25;-7.20;99.90
3842;DHT22;1936;47.074;15.336;2022-12-13T03:21:29;-7.30;99.90
3842;DHT22;1936;47.074;15.336;2022-12-13T03:23:32;-7.30;99.90
3842;DHT22;1936;47.074;15.336;2022-12-13T03:25:35;-7.30;99.90
3842;DHT22;1936;47.074;15.336;2022-12-13T03:27:39;-7.40;99.90
3842;DHT22;1936;47.074;15.336;2022-12-13T03:29:43;-7.40;99.90
3842;DHT22;1936;47.074;15.336;2022-12-13T03:31:46;-7.40;99.90
3842;DHT22;1936;47.074;15.336;2022-12-13T03:33:50;-7.40;99.90
3842;DHT22;1936;47.074;15.336;2022-12-13T03:35:56;-7.40;99.90
3842;DHT22;1936;47.074;15.336;2022-12-13T03:37:59;-7.40;99.90
3842;DHT22;1936;47.074;15.336;2022-12-13T03:40:04;-7.40;99.90
3842;DHT22;1936;47.074;15.336;2022-12-13T03:42:08;-7.40;99.90
3842;DHT22;1936;47.074;15.336;2022-12-13T03:44:11;-7.50;99.90
3842;DHT22;1936;47.074;15.336;2022-12-13T03:46:15;-7.50;99.90
3842;DHT22;1936;47.074;15.336;2022-12-13T03:48:18;-7.50;99.90
3842;DHT22;1936;47.074;15.336;2022-12-13T03:50:24;-7.50;99.90
3842;DHT22;1936;47.074;15.336;2022-12-13T03:52:29;-7.50;99.90
3842;DHT22;1936;47.074;15.336;2022-12-13T03:54:33;-7.60;99.90
3842;DHT22;1936;47.074;15.336;2022-12-13T03:56:37;-7.60;99.90
3842;DHT22;1936;47.074;15.336;2022-12-13T03:58:40;-7.60;99.90
3842;DHT22;1936;47.074;15.336;2022-12-13T04:00:44;-7.70;99.90
3842;DHT22;1936;47.074;15.336;2022-12-13T04:02:47;-7.70;99.90
3842;DHT22;1936;47.074;15.336;2022-12-13T04:04:51;-7.90;99.90
3842;DHT22;1936;47.074;15.336;2022-12-13T04:07:01;-8.00;99.90
3842;DHT22;1936;47.074;15.336;2022-12-13T04:09:24;-8.00;99.90
3842;DHT22;1936;47.074;15.336;2022-12-13T04:11:27;-8.10;99.90
3842;DHT22;1936;47.074;15.336;2022-12-13T04:13:48;-8.20;99.90
3842;DHT22;1936;47.074;15.336;2022-12-13T04:15:52;-8.20;99.90
3842;DHT22;1936;47.074;15.336;2022-12-13T04:17:55;-8.20;99.90
3842;DHT22;1936;47.074;15.336;2022-12-13T04:19:59;-8.20;99.90
3842;DHT22;1936;47.074;15.336;2022-12-13T04:22:02;-8.20;99.90
3842;DHT22;1936;47.074;15.336;2022-12-13T04:24:06;-8.30;99.90
3842;DHT22;1936;47.074;15.336;2022-12-13T04:26:11;-8.30;99.90
3842;DHT22;1936;47.074;15.336;2022-12-13T04:28:14;-8.20;99.90
3842;DHT22;1936;47.074;15.336;2022-12-13T04:30:23;-8.20;99.90
3842;DHT22;1936;47.074;15.336;2022-12-13T04:32:27;-8.20;99.90
3842;DHT22;1936;47.074;15.336;2022-12-13T04:34:30;-8.10;99.90
3842;DHT22;1936;47.074;15.336;2022-12-13T04:36:38;-8.10;99.90
3842;DHT22;1936;47.074;15.336;2022-12-13T04:38:42;-8.10;99.90
3842;DHT22;1936;47.074;15.336;2022-12-13T04:40:46;-7.90;99.90
3842;DHT22;1936;47.074;15.336;2022-12-13T04:42:51;-7.90;99.90
3842;DHT22;1936;47.074;15.336;2022-12-13T04:44:55;-8.00;99.90
3842;DHT22;1936;47.074;15.336;2022-12-13T04:46:59;-7.90;99.90
3842;DHT22;1936;47.074;15.336;2022-12-13T04:49:03;-8.00;99.90
3842;DHT22;1936;47.074;15.336;2022-12-13T04:51:07;-8.00;99.90
3842;DHT22;1936;47.074;15.336;2022-12-13T04:53:13;-8.00;99.90
3842;DHT22;1936;47.074;15.336;2022-12-13T04:55:17;-7.80;99.90
3842;DHT22;1936;47.074;15.336;2022-12-13T04:57:23;-7.60;99.90
3842;DHT22;1936;47.074;15.336;2022-12-13T04:59:28;-7.50;99.90
3842;DHT22;1936;47.074;15.336;2022-12-13T05:01:31;-7.50;99.90
3842;DHT22;1936;47.074;15.336;2022-12-13T05:03:35;-7.30;99.90
3842;DHT22;1936;47.074;15.336;2022-12-13T05:05:39;-7.10;99.90
3842;DHT22;1936;47.074;15.336;2022-12-13T05:07:42;-7.00;99.90
3842;DHT22;1936;47.074;15.336;2022-12-13T05:09:46;-7.00;99.90
3842;DHT22;1936;47.074;15.336;2022-12-13T05:11:49;-7.10;99.90
3842;DHT22;1936;47.074;15.336;2022-12-13T05:14:02;-7.20;99.90
3842;DHT22;1936;47.074;15.336;2022-12-13T05:16:08;-7.30;99.90
3842;DHT22;1936;47.074;15.336;2022-12-13T05:18:12;-7.40;99.90
3842;DHT22;1936;47.074;15.336;2022-12-13T05:20:15;-7.40;99.90
3842;DHT22;1936;47.074;15.336;2022-12-13T05:22:19;-7.40;99.90
3842;DHT22;1936;47.074;15.336;2022-12-13T05:24:22;-7.50;99.90
3842;DHT22;1936;47.074;15.336;2022-12-13T05:26:25;-7.40;99.90
3842;DHT22;1936;47.074;15.336;2022-12-13T05:28:30;-7.20;99.90
3842;DHT22;1936;47.074;15.336;2022-12-13T05:30:33;-7.00;99.90
3842;DHT22;1936;47.074;15.336;2022-12-13T05:32:41;-7.00;99.90
3842;DHT22;1936;47.074;15.336;2022-12-13T05:34:45;-6.90;99.90
3842;DHT22;1936;47.074;15.336;2022-12-13T05:36:49;-6.80;99.90
3842;DHT22;1936;47.074;15.336;2022-12-13T05:38:52;-6.80;99.90
3842;DHT22;1936;47.074;15.336;2022-12-13T05:40:56;-6.80;99.90
3842;DHT22;1936;47.074;15.336;2022-12-13T05:43:00;-6.90;99.90
3842;DHT22;1936;47.074;15.336;2022-12-13T05:45:05;-6.80;99.90
3842;DHT22;1936;47.074;15.336;2022-12-13T05:47:08;-6.70;99.90
3842;DHT22;1936;47.074;15.336;2022-12-13T05:49:13;-6.70;99.90
3842;DHT22;1936;47.074;15.336;2022-12-13T05:51:16;-6.80;99.90
3842;DHT22;1936;47.074;15.336;2022-12-13T05:53:20;-6.70;99.90
3842;DHT22;1936;47.074;15.336;2022-12-13T05:55:32;-6.70;99.90
3842;DHT22;1936;47.074;15.336;2022-12-13T05:57:37;-6.70;99.90
3842;DHT22;1936;47.074;15.336;2022-12-13T05:59:40;-6.70;99.90
3842;DHT22;1936;47.074;15.336;2022-12-13T06:01:44;-6.70;99.90
3842;DHT22;1936;47.074;15.336;2022-12-13T06:03:47;-6.90;99.90
3842;DHT22;1936;47.074;15.336;2022-12-13T06:05:52;-7.00;99.90
3842;DHT22;1936;47.074;15.336;2022-12-13T06:07:56;-7.20;99.90
3842;DHT22;1936;47.074;15.336;2022-12-13T06:10:00;-7.20;99.90
3842;DHT22;1936;47.074;15.336;2022-12-13T06:12:11;-7.30;99.90
3842;DHT22;1936;47.074;15.336;2022-12-13T06:14:33;-7.40;99.90
3842;DHT22;1936;47.074;15.336;2022-12-13T06:16:36;-7.60;99.90
3842;DHT22;1936;47.074;15.336;2022-12-13T06:18:40;-7.70;99.90
3842;DHT22;1936;47.074;15.336;2022-12-13T06:20:43;-7.80;99.90
3842;DHT22;1936;47.074;15.336;2022-12-13T06:22:49;-7.80;99.90
3842;DHT22;1936;47.074;15.336;2022-12-13T06:24:52;-7.90;99.90
3842;DHT22;1936;47.074;15.336;2022-12-13T06:26:56;-8.10;99.90
3842;DHT22;1936;47.074;15.336;2022-12-13T06:29:00;-8.10;99.90
3842;DHT22;1936;47.074;15.336;2022-12-13T06:31:04;-8.10;99.90
3842;DHT22;1936;47.074;15.336;2022-12-13T06:33:08;-8.10;99.90
3842;DHT22;1936;47.074;15.336;2022-12-13T06:35:14;-8.20;99.90
3842;DHT22;1936;47.074;15.336;2022-12-13T06:37:30;-8.20;99.90
3842;DHT22;1936;47.074;15.336;2022-12-13T06:39:35;-8.20;99.90
3842;DHT22;1936;47.074;15.336;2022-12-13T06:41:39;-8.20;99.90
3842;DHT22;1936;47.074;15.336;2022-12-13T06:43:42;-8.30;99.90
3842;DHT22;1936;47.074;15.336;2022-12-13T06:45:46;-8.20;99.90
3842;DHT22;1936;47.074;15.336;2022-12-13T06:47:49;-8.00;99.90
3842;DHT22;1936;47.074;15.336;2022-12-13T06:49:52;-7.80;99.90
3842;DHT22;1936;47.074;15.336;2022-12-13T06:52:07;-7.40;99.90
3842;DHT22;1936;47.074;15.336;2022-12-13T06:54:11;-7.20;99.90
3842;DHT22;1936;47.074;15.336;2022-12-13T06:56:16;-7.10;99.90
3842;DHT22;1936;47.074;15.336;2022-12-13T06:58:19;-7.00;99.90
3842;DHT22;1936;47.074;15.336;2022-12-13T07:00:22;-6.90;99.90
3842;DHT22;1936;47.074;15.336;2022-12-13T07:02:39;-6.70;99.90
3842;DHT22;1936;47.074;15.336;2022-12-13T07:04:42;-6.60;99.90
3842;DHT22;1936;47.074;15.336;2022-12-13T07:06:46;-6.60;99.90
3842;DHT22;1936;47.074;15.336;2022-12-13T07:08:51;-6.70;99.90
3842;DHT22;1936;47.074;15.336;2022-12-13T07:10:54;-6.50;99.90
3842;DHT22;1936;47.074;15.336;2022-12-13T07:12:59;-6.60;99.90
3842;DHT22;1936;47.074;15.336;2022-12-13T07:15:03;-6.70;99.90
3842;DHT22;1936;47.074;15.336;2022-12-13T07:17:07;-6.60;99.90
3842;DHT22;1936;47.074;15.336;2022-12-13T07:19:11;-6.70;99.90
3842;DHT22;1936;47.074;15.336;2022-12-13T07:21:26;-6.70;99.90
3842;DHT22;1936;47.074;15.336;2022-12-13T07:23:29;-6.70;99.90
3842;DHT22;1936;47.074;15.336;2022-12-13T07:25:33;-6.70;99.90
3842;DHT22;1936;47.074;15.336;2022-12-13T07:27:37;-6.60;99.90
3842;DHT22;1936;47.074;15.336;2022-12-13T07:29:41;-6.50;99.90
3842;DHT22;1936;47.074;15.336;2022-12-13T07:31:45;-6.50;99.90
3842;DHT22;1936;47.074;15.336;2022-12-13T07:33:49;-6.50;99.90
3842;DHT22;1936;47.074;15.336;2022-12-13T07:35:59;-6.50;99.90
3842;DHT22;1936;47.074;15.336;2022-12-13T07:38:02;-6.50;99.90
3842;DHT22;1936;47.074;15.336;2022-12-13T07:40:07;-6.30;99.90
3842;DHT22;1936;47.074;15.336;2022-12-13T07:42:10;-6.20;99.90
3842;DHT22;1936;47.074;15.336;2022-12-13T07:44:13;-6.10;99.90
3842;DHT22;1936;47.074;15.336;2022-12-13T07:46:18;-6.00;99.90
3842;DHT22;1936;47.074;15.336;2022-12-13T07:48:34;-6.00;99.90
3842;DHT22;1936;47.074;15.336;2022-12-13T07:50:37;-5.90;99.90
3842;DHT22;1936;47.074;15.336;2022-12-13T07:52:41;-5.90;99.90
3842;DHT22;1936;47.074;15.336;2022-12-13T07:54:44;-5.80;99.90
3842;DHT22;1936;47.074;15.336;2022-12-13T07:56:47;-5.80;99.90
3842;DHT22;1936;47.074;15.336;2022-12-13T07:58:51;-5.80;99.90
3842;DHT22;1936;47.074;15.336;2022-12-13T08:00:58;-5.80;99.90
3842;DHT22;1936;47.074;15.336;2022-12-13T08:03:03;-5.80;99.90
3842;DHT22;1936;47.074;15.336;2022-12-13T08:05:07;-5.80;99.90
3842;DHT22;1936;47.074;15.336;2022-12-13T08:07:28;-5.80;99.90
3842;DHT22;1936;47.074;15.336;2022-12-13T08:09:31;-5.70;99.90
3842;DHT22;1936;47.074;15.336;2022-12-13T08:11:34;-5.60;99.90
3842;DHT22;1936;47.074;15.336;2022-12-13T08:13:38;-5.50;99.90
3842;DHT22;1936;47.074;15.336;2022-12-13T08:15:43;-5.50;99.90
3842;DHT22;1936;47.074;15.336;2022-12-13T08:17:46;-5.30;99.90
3842;DHT22;1936;47.074;15.336;2022-12-13T08:19:51;-5.20;99.90
3842;DHT22;1936;47.074;15.336;2022-12-13T08:21:58;-5.10;99.90
3842;DHT22;1936;47.074;15.336;2022-12-13T08:24:03;-5.00;99.90
3842;DHT22;1936;47.074;15.336;2022-12-13T08:26:16;-4.70;99.90
3842;DHT22;1936;47.074;15.336;2022-12-13T08:28:19;-4.30;99.90
3842;DHT22;1936;47.074;15.336;2022-12-13T08:30:23;-3.30;99.90
3842;DHT22;1936;47.074;15.336;2022-12-13T08:32:26;-1.60;99.90
3842;DHT22;1936;47.074;15.336;2022-12-13T08:34:30;0.60;99.90
3842;DHT22;1936;47.074;15.336;2022-12-13T08:36:35;2.20;93.40
3842;DHT22;1936;47.074;15.336;2022-12-13T08:38:38;3.20;79.40
3842;DHT22;1936;47.074;15.336;2022-12-13T08:40:41;4.40;72.80
3842;DHT22;1936;47.074;15.336;2022-12-13T08:42:45;5.10;65.00
3842;DHT22;1936;47.074;15.336;2022-12-13T08:44:49;5.70;59.90
3842;DHT22;1936;47.074;15.336;2022-12-13T08:46:53;7.00;57.10
3842;DHT22;1936;47.074;15.336;2022-12-13T08:48:57;6.50;51.40
3842;DHT22;1936;47.074;15.336;2022-12-13T08:51:01;7.20;50.10
3842;DHT22;1936;47.074;15.336;2022-12-13T08:53:08;8.00;48.70
3842;DHT22;1936;47.074;15.336;2022-12-13T08:55:29;8.80;50.40
3842;DHT22;1936;47.074;15.336;2022-12-13T08:57:34;8.60;49.50
3842;DHT22;1936;47.074;15.336;2022-12-13T08:59:38;8.90;48.20
3842;DHT22;1936;47.074;15.336;2022-12-13T09:01:41;9.50;48.30
3842;DHT22;1936;47.074;15.336;2022-12-13T09:03:45;9.70;47.60
3842;DHT22;1936;47.074;15.336;2022-12-13T09:05:48;9.60;46.20
3842;DHT22;1936;47.074;15.336;2022-12-13T09:07:53;10.20;46.50
3842;DHT22;1936;47.074;15.336;2022-12-13T09:09:58;10.10;44.60
3842;DHT22;1936;47.074;15.336;2022-12-13T09:12:22;8.90;42.70
3842;DHT22;1936;47.074;15.336;2022-12-13T09:14:32;10.10;43.00
3842;DHT22;1936;47.074;15.336;2022-12-13T09:16:35;10.40;41.90
3842;DHT22;1936;47.074;15.336;2022-12-13T09:18:39;10.80;41.70
3842;DHT22;1936;47.074;15.336;2022-12-13T09:20:42;10.20;41.10
3842;DHT22;1936;47.074;15.336;2022-12-13T09:22:46;11.50;40.50
3842;DHT22;1936;47.074;15.336;2022-12-13T09:24:49;10.80;39.50
3842;DHT22;1936;47.074;15.336;2022-12-13T09:26:54;10.60;40.30
3842;DHT22;1936;47.074;15.336;2022-12-13T09:28:58;11.00;38.40
3842;DHT22;1936;47.074;15.336;2022-12-13T09:31:13;11.60;38.80
3842;DHT22;1936;47.074;15.336;2022-12-13T09:33:17;11.70;37.20
3842;DHT22;1936;47.074;15.336;2022-12-13T09:35:31;11.80;36.10
3842;DHT22;1936;47.074;15.336;2022-12-13T09:37:35;11.90;35.60
3842;DHT22;1936;47.074;15.336;2022-12-13T09:39:46;9.60;37.00
3842;DHT22;1936;47.074;15.336;2022-12-13T09:41:58;10.50;37.90
3842;DHT22;1936;47.074;15.336;2022-12-13T09:44:13;11.00;36.00
3842;DHT22;1936;47.074;15.336;2022-12-13T09:46:42;10.40;39.30
3842;DHT22;1936;47.074;15.336;2022-12-13T09:48:47;10.70;38.00
3842;DHT22;1936;47.074;15.336;2022-12-13T09:50:51;11.10;40.10
3842;DHT22;1936;47.074;15.336;2022-12-13T09:53:17;11.60;38.40
3842;DHT22;1936;47.074;15.336;2022-12-13T09:55:25;11.60;36.80
3842;DHT22;1936;47.074;15.336;2022-12-13T09:57:32;11.70;36.50
3842;DHT22;1936;47.074;15.336;2022-12-13T09:59:36;10.60;39.50
3842;DHT22;1936;47.074;15.336;2022-12-13T10:01:39;11.60;37.80
3842;DHT22;1936;47.074;15.336;2022-12-13T10:03:46;12.00;37.80
3842;DHT22;1936;47.074;15.336;2022-12-13T10:05:56;10.60;36.40
3842;DHT22;1936;47.074;15.336;2022-12-13T10:08:05;10.90;37.70
3842;DHT22;1936;47.074;15.336;2022-12-13T10:10:11;11.20;38.00
3842;DHT22;1936;47.074;15.336;2022-12-13T10:12:16;12.30;36.50
3842;DHT22;1936;47.074;15.336;2022-12-13T10:14:25;13.00;36.00
3842;DHT22;1936;47.074;15.336;2022-12-13T10:16:42;13.10;35.40
3842;DHT22;1936;47.074;15.336;2022-12-13T10:18:48;12.90;36.50
3842;DHT22;1936;47.074;15.336;2022-12-13T10:20:52;12.40;36.50
3842;DHT22;1936;47.074;15.336;2022-12-13T10:22:56;12.30;37.10
3842;DHT22;1936;47.074;15.336;2022-12-13T10:25:44;12.70;35.90
3842;DHT22;1936;47.074;15.336;2022-12-13T10:27:52;10.80;37.80
3842;DHT22;1936;47.074;15.336;2022-12-13T10:30:03;9.90;37.40
3842;DHT22;1936;47.074;15.336;2022-12-13T10:32:11;9.70;38.40
3842;DHT22;1936;47.074;15.336;2022-12-13T10:34:20;9.20;41.20
3842;DHT22;1936;47.074;15.336;2022-12-13T10:36:33;9.10;40.00
3842;DHT22;1936;47.074;15.336;2022-12-13T10:38:41;8.20;40.50
3842;DHT22;1936;47.074;15.336;2022-12-13T10:40:45;8.10;41.10
3842;DHT22;1936;47.074;15.336;2022-12-13T10:43:05;7.30;43.00
3842;DHT22;1936;47.074;15.336;2022-12-13T10:45:14;6.90;43.10
3842;DHT22;1936;47.074;15.336;2022-12-13T10:47:25;6.30;46.00
3842;DHT22;1936;47.074;15.336;2022-12-13T10:49:34;6.40;46.50
3842;DHT22;1936;47.074;15.336;2022-12-13T10:51:39;6.10;45.50
3842;DHT22;1936;47.074;15.336;2022-12-13T10:53:45;5.80;47.30
3842;DHT22;1936;47.074;15.336;2022-12-13T10:55:53;5.70;47.90
3842;DHT22;1936;47.074;15.336;2022-12-13T10:58:04;5.20;48.70
3842;DHT22;1936;47.074;15.336;2022-12-13T11:00:30;4.80;49.20
3842;DHT22;1936;47.074;15.336;2022-12-13T11:02:35;4.90;48.70
3842;DHT22;1936;47.074;15.336;2022-12-13T11:04:39;4.90;49.00
3842;DHT22;1936;47.074;15.336;2022-12-13T11:06:44;4.70;49.10
3842;DHT22;1936;47.074;15.336;2022-12-13T11:08:47;4.60;49.70
3842;DHT22;1936;47.074;15.336;2022-12-13T11:10:56;5.10;50.20
3842;DHT22;1936;47.074;15.336;2022-12-13T11:13:02;5.00;49.90
3842;DHT22;1936;47.074;15.336;2022-12-13T11:15:13;4.50;49.20
3842;DHT22;1936;47.074;15.336;2022-12-13T11:17:27;4.80;50.10
3842;DHT22;1936;47.074;15.336;2022-12-13T11:19:36;4.90;48.80
3842;DHT22;1936;47.074;15.336;2022-12-13T11:21:46;4.50;51.50
3842;DHT22;1936;47.074;15.336;2022-12-13T11:23:50;4.10;51.10
3842;DHT22;1936;47.074;15.336;2022-12-13T11:25:57;4.10;52.00
3842;DHT22;1936;47.074;15.336;2022-12-13T11:30:34;3.40;53.40
3842;DHT22;1936;47.074;15.336;2022-12-13T11:35:17;2.80;55.30
3842;DHT22;1936;47.074;15.336;2022-12-13T11:37:27;3.10;54.90
3842;DHT22;1936;47.074;15.336;2022-12-13T11:39:34;3.50;52.90
3842;DHT22;1936;47.074;15.336;2022-12-13T11:41:42;3.10;53.30
3842;DHT22;1936;47.074;15.336;2022-12-13T11:43:48;3.40;53.10
3842;DHT22;1936;47.074;15.336;2022-12-13T11:45:57;3.10;52.70
3842;DHT22;1936;47.074;15.336;2022-12-13T11:48:07;3.00;53.70
3842;DHT22;1936;47.074;15.336;2022-12-13T11:50:17;3.30;53.90
3842;DHT22;1936;47.074;15.336;2022-12-13T11:52:38;3.10;53.90
3842;DHT22;1936;47.074;15.336;2022-12-13T11:54:48;2.70;54.70
3842;DHT22;1936;47.074;15.336;2022-12-13T11:56:54;2.10;55.70
3842;DHT22;1936;47.074;15.336;2022-12-13T11:59:06;1.90;57.00
3842;DHT22;1936;47.074;15.336;2022-12-13T12:01:30;2.60;56.40
3842;DHT22;1936;47.074;15.336;2022-12-13T12:03:45;2.80;56.00
3842;DHT22;1936;47.074;15.336;2022-12-13T12:05:52;2.80;55.00
3842;DHT22;1936;47.074;15.336;2022-12-13T12:08:01;3.00;54.40
3842;DHT22;1936;47.074;15.336;2022-12-13T12:10:31;2.70;53.90
3842;DHT22;1936;47.074;15.336;2022-12-13T12:12:37;2.30;55.80
3842;DHT22;1936;47.074;15.336;2022-12-13T12:14:52;1.90;56.00
3842;DHT22;1936;47.074;15.336;2022-12-13T12:16:57;1.80;55.80
3842;DHT22;1936;47.074;15.336;2022-12-13T12:19:02;1.90;55.90
3842;DHT22;1936;47.074;15.336;2022-12-13T12:21:20;1.80;55.00
3842;DHT22;1936;47.074;15.336;2022-12-13T12:24:07;1.70;55.70
3842;DHT22;1936;47.074;15.336;2022-12-13T12:26:14;2.20;55.40
3842;DHT22;1936;47.074;15.336;2022-12-13T12:28:26;2.20;55.00
3842;DHT22;1936;47.074;15.336;2022-12-13T12:30:42;2.10;54.80
3842;DHT22;1936;47.074;15.336;2022-12-13T12:32:52;2.50;55.90
3842;DHT22;1936;47.074;15.336;2022-12-13T12:35:14;2.30;57.70
3842;DHT22;1936;47.074;15.336;2022-12-13T12:37:27;2.60;56.60
3842;DHT22;1936;47.074;15.336;2022-12-13T12:39:43;3.10;58.40
3842;DHT22;1936;47.074;15.336;2022-12-13T12:42:05;3.80;53.10
3842;DHT22;1936;47.074;15.336;2022-12-13T12:44:21;4.50;51.60
3842;DHT22;1936;47.074;15.336;2022-12-13T12:46:39;5.50;50.60
3842;DHT22;1936;47.074;15.336;2022-12-13T12:49:27;6.00;50.70
3842;DHT22;1936;47.074;15.336;2022-12-13T12:51:44;7.40;47.10
3842;DHT22;1936;47.074;15.336;2022-12-13T12:53:53;7.60;44.70
3842;DHT22;1936;47.074;15.336;2022-12-13T12:56:11;7.70;43.60
3842;DHT22;1936;47.074;15.336;2022-12-13T12:58:26;7.40;43.50
3842;DHT22;1936;47.074;15.336;2022-12-13T13:00:38;6.80;44.00
3842;DHT22;1936;47.074;15.336;2022-12-13T13:02:50;8.00;44.60
3842;DHT22;1936;47.074;15.336;2022-12-13T13:05:10;7.70;43.80
3842;DHT22;1936;47.074;15.336;2022-12-13T13:07:21;7.00;43.90
3842;DHT22;1936;47.074;15.336;2022-12-13T13:09:26;6.90;43.70
3842;DHT22;1936;47.074;15.336;2022-12-13T13:11:33;7.50;44.00
3842;DHT22;1936;47.074;15.336;2022-12-13T13:13:45;7.60;44.40
3842;DHT22;1936;47.074;15.336;2022-12-13T13:15:54;7.20;43.40
3842;DHT22;1936;47.074;15.336;2022-12-13T13:17:59;6.70;45.50
3842;DHT22;1936;47.074;15.336;2022-12-13T13:20:16;6.80;45.80
3842;DHT22;1936;47.074;15.336;2022-12-13T13:22:29;6.10;45.70
3842;DHT22;1936;47.074;15.336;2022-12-13T13:24:34;6.70;45.30
3842;DHT22;1936;47.074;15.336;2022-12-13T13:26:39;5.80;46.10
3842;DHT22;1936;47.074;15.336;2022-12-13T13:28:44;5.70;47.20
3842;DHT22;1936;47.074;15.336;2022-12-13T13:31:04;6.50;46.00
3842;DHT22;1936;47.074;15.336;2022-12-13T13:33:44;6.00;46.20
3842;DHT22;1936;47.074;15.336;2022-12-13T13:35:48;6.60;45.90
3842;DHT22;1936;47.074;15.336;2022-12-13T13:37:56;6.60;45.50
3842;DHT22;1936;47.074;15.336;2022-12-13T13:40:06;6.50;45.30
3842;DHT22;1936;47.074;15.336;2022-12-13T13:42:32;6.50;45.60
3842;DHT22;1936;47.074;15.336;2022-12-13T13:47:14;5.30;45.90
3842;DHT22;1936;47.074;15.336;2022-12-13T13:49:17;3.70;49.50
3842;DHT22;1936;47.074;15.336;2022-12-13T13:51:50;3.40;51.10
3842;DHT22;1936;47.074;15.336;2022-12-13T13:54:41;3.00;52.00
3842;DHT22;1936;47.074;15.336;2022-12-13T14:00:16;2.20;56.10